createdAt,value
2022-11-11T00:00:19.888Z,1.77
2022-11-11T00:03:05.518Z,1.80
2022-11-11T00:05:51.114Z,1.13
2022-11-11T00:08:36.863Z,1.77
2022-11-11T00:11:22.869Z,1.20
2022-11-11T00:14:08.659Z,1.20
2022-11-11T00:17:13.031Z,1.23
2022-11-11T00:20:18.944Z,1.48
2022-11-11T00:23:23.600Z,1.58
2022-11-11T00:26:37.442Z,1.50
2022-11-11T00:29:15.472Z,1.38
2022-11-11T00:32:25.042Z,1.20
2022-11-11T00:35:29.911Z,1.05
2022-11-11T00:38:35.697Z,0.93
2022-11-11T00:41:21.582Z,1.55
2022-11-11T00:44:07.736Z,1.20
2022-11-11T00:47:12.751Z,1.38
2022-11-11T00:50:17.524Z,1.30
2022-11-11T00:53:03.132Z,1.00
2022-11-11T00:55:49.197Z,1.17
2022-11-11T00:58:35.199Z,1.60
2022-11-11T01:01:20.952Z,1.13
2022-11-11T01:04:07.279Z,1.77
2022-11-11T01:06:53.712Z,1.85
2022-11-11T01:09:39.601Z,1.45
2022-11-11T01:12:25.688Z,1.48
2022-11-11T01:15:11.876Z,1.30
2022-11-11T01:17:57.834Z,1.75
2022-11-11T01:20:43.577Z,1.15
2022-11-11T01:23:29.382Z,1.45
2022-11-11T01:26:15.375Z,2.72
2022-11-11T01:29:01.207Z,1.35
2022-11-11T01:31:47.222Z,1.10
2022-11-11T01:34:32.980Z,1.00
2022-11-11T01:37:19.013Z,1.42
2022-11-11T01:40:04.950Z,1.65
2022-11-11T01:42:51.025Z,1.10
2022-11-11T01:45:36.673Z,3.20
2022-11-11T01:48:41.595Z,1.20
2022-11-11T01:51:27.361Z,0.98
2022-11-11T01:54:13.314Z,1.40
2022-11-11T01:56:59.055Z,1.92
2022-11-11T01:59:45.117Z,1.23
2022-11-11T02:02:31.015Z,1.45
2022-11-11T02:05:35.742Z,1.17
2022-11-11T02:08:34.061Z,0.88
2022-11-11T02:11:39.868Z,1.95
2022-11-11T02:14:39.959Z,0.93
2022-11-11T02:17:26.535Z,1.17
2022-11-11T02:20:12.356Z,1.50
2022-11-11T02:22:58.042Z,1.27
2022-11-11T02:25:44.054Z,1.05
2022-11-11T02:28:29.638Z,1.30
2022-11-11T02:31:15.371Z,1.27
2022-11-11T02:34:01.498Z,1.65
2022-11-11T02:36:47.708Z,1.33
2022-11-11T02:40:01.433Z,1.00
2022-11-11T02:42:39.420Z,1.13
2022-11-11T02:45:25.212Z,1.05
2022-11-11T02:48:11.206Z,1.45
2022-11-11T02:50:57.164Z,1.05
2022-11-11T02:53:43.058Z,1.40
2022-11-11T02:56:47.423Z,1.00
2022-11-11T02:59:33.532Z,1.10
2022-11-11T03:02:19.678Z,1.05
2022-11-11T03:05:05.734Z,1.83
2022-11-11T03:07:51.891Z,1.35
2022-11-11T03:10:38.053Z,1.50
2022-11-11T03:13:24.001Z,1.35
2022-11-11T03:16:29.763Z,1.58
2022-11-11T03:25:27.899Z,1.70
2022-11-11T03:28:13.388Z,1.10
2022-11-11T03:31:03.152Z,1.20
2022-11-11T03:33:50.108Z,1.55
2022-11-11T03:36:55.525Z,1.75
2022-11-11T03:42:27.672Z,1.23
2022-11-11T03:45:13.224Z,2.30
2022-11-11T03:47:58.840Z,1.20
2022-11-11T03:50:47.186Z,1.40
2022-11-11T03:53:32.918Z,1.30
2022-11-11T03:56:18.427Z,1.08
2022-11-11T03:59:04.211Z,1.35
2022-11-11T04:02:08.467Z,1.35
2022-11-11T04:05:13.159Z,1.20
2022-11-11T04:08:17.793Z,1.50
2022-11-11T04:11:03.728Z,1.20
2022-11-11T04:14:08.285Z,2.08
2022-11-11T04:16:54.206Z,1.17
2022-11-11T04:19:58.568Z,1.30
2022-11-11T04:22:44.421Z,1.27
2022-11-11T04:25:49.018Z,1.60
2022-11-11T04:28:53.711Z,1.00
2022-11-11T04:31:59.557Z,0.98
2022-11-11T04:34:45.458Z,2.22
2022-11-11T04:37:31.012Z,1.45
2022-11-11T04:40:35.813Z,1.38
2022-11-11T04:43:21.998Z,1.80
2022-11-11T04:46:07.641Z,1.67
2022-11-11T04:48:53.230Z,1.63
2022-11-11T04:51:57.383Z,1.38
2022-11-11T04:55:01.947Z,1.60
2022-11-11T04:57:47.874Z,1.52
2022-11-11T05:00:33.519Z,3.70
2022-11-11T05:03:22.103Z,2.15
2022-11-11T05:06:27.216Z,1.63
2022-11-11T05:09:13.155Z,1.87
2022-11-11T05:11:58.723Z,1.77
2022-11-11T05:15:02.988Z,2.05
2022-11-11T05:18:07.491Z,2.45
2022-11-11T05:21:12.130Z,2.95
2022-11-11T05:24:16.859Z,2.30
2022-11-11T05:27:02.689Z,1.75
2022-11-11T05:29:48.399Z,4.22
2022-11-11T05:32:34.264Z,2.25
2022-11-11T05:35:19.934Z,2.13
2022-11-11T05:38:20.867Z,1.65
2022-11-11T05:41:06.257Z,1.90
2022-11-11T05:43:52.419Z,1.77
2022-11-11T05:46:38.172Z,2.50
2022-11-11T05:49:25.076Z,2.03
2022-11-11T05:52:10.537Z,1.40
2022-11-11T05:54:56.162Z,2.63
2022-11-11T05:57:42.186Z,1.80
2022-11-11T06:00:27.784Z,1.48
2022-11-11T06:03:13.429Z,2.40
2022-11-11T06:05:59.797Z,1.77
2022-11-11T06:08:45.587Z,1.95
2022-11-11T06:11:32.864Z,1.85
2022-11-11T06:14:18.909Z,2.00
2022-11-11T06:17:04.485Z,2.00
2022-11-11T06:19:50.179Z,2.45
2022-11-11T06:22:56.034Z,1.60
2022-11-11T06:26:00.439Z,2.13
2022-11-11T06:28:46.272Z,2.15
2022-11-11T06:31:31.756Z,2.83
2022-11-11T06:34:17.748Z,3.30
2022-11-11T06:37:03.616Z,2.83
2022-11-11T06:39:49.190Z,2.20
2022-11-11T06:42:34.900Z,2.28
2022-11-11T06:45:20.387Z,1.80
2022-11-11T06:48:06.050Z,2.35
2022-11-11T06:50:51.608Z,1.88
2022-11-11T06:53:37.139Z,2.45
2022-11-11T06:56:22.973Z,1.83
2022-11-11T06:59:08.798Z,2.25
2022-11-11T07:01:54.482Z,2.85
2022-11-11T07:04:40.187Z,2.00
2022-11-11T07:07:25.985Z,1.65
2022-11-11T07:10:11.550Z,2.08
2022-11-11T07:12:57.111Z,1.98
2022-11-11T07:15:42.777Z,1.90
2022-11-11T07:18:29.001Z,1.70
2022-11-11T07:21:14.928Z,1.90
2022-11-11T07:24:01.117Z,2.00
2022-11-11T07:26:46.896Z,2.05
2022-11-11T07:29:32.795Z,2.00
2022-11-11T07:32:18.491Z,1.92
2022-11-11T07:35:04.474Z,1.88
2022-11-11T07:37:50.505Z,2.58
2022-11-11T07:40:35.949Z,2.63
2022-11-11T07:43:21.642Z,2.60
2022-11-11T07:46:07.704Z,2.45
2022-11-11T07:48:53.231Z,2.70
2022-11-11T07:51:39.576Z,2.25
2022-11-11T07:54:25.478Z,2.00
2022-11-11T07:57:11.124Z,2.33
2022-11-11T07:59:56.801Z,2.10
2022-11-11T08:02:42.452Z,2.10
2022-11-11T08:05:28.261Z,3.83
2022-11-11T08:08:14.015Z,3.10
2022-11-11T08:10:59.844Z,2.90
2022-11-11T08:13:45.507Z,1.95
2022-11-11T08:16:31.162Z,2.33
2022-11-11T08:19:17.238Z,2.17
2022-11-11T08:22:02.911Z,2.20
2022-11-11T08:25:05.293Z,2.55
2022-11-11T08:27:51.425Z,2.20
2022-11-11T08:30:37.179Z,2.33
2022-11-11T08:33:38.301Z,1.92
2022-11-11T08:36:25.463Z,2.17
2022-11-11T08:39:12.104Z,2.58
2022-11-11T08:41:58.026Z,3.33
2022-11-11T08:44:44.031Z,2.83
2022-11-11T08:47:29.715Z,2.50
2022-11-11T08:50:15.374Z,2.53
2022-11-11T08:53:01.030Z,2.67
2022-11-11T08:55:46.504Z,2.28
2022-11-11T08:58:32.112Z,2.72
2022-11-11T09:01:18.316Z,2.80
2022-11-11T09:04:29.757Z,2.63
2022-11-11T09:07:10.280Z,2.08
2022-11-11T09:09:56.275Z,2.60
2022-11-11T09:12:42.399Z,2.92
2022-11-11T09:15:28.500Z,2.13
2022-11-11T09:18:14.158Z,2.47
2022-11-11T09:21:02.676Z,2.25
2022-11-11T09:23:48.211Z,2.75
2022-11-11T09:26:33.679Z,2.03
2022-11-11T09:29:19.389Z,2.22
2022-11-11T09:32:05.349Z,2.20
2022-11-11T09:34:51.174Z,2.72
2022-11-11T09:37:37.447Z,2.13
2022-11-11T09:40:23.167Z,2.72
2022-11-11T09:43:09.382Z,2.88
2022-11-11T09:45:54.870Z,1.70
2022-11-11T09:48:40.422Z,2.08
2022-11-11T09:51:25.989Z,2.00
2022-11-11T09:54:12.114Z,2.60
2022-11-11T09:56:58.328Z,2.03
2022-11-11T09:59:45.993Z,3.58
2022-11-11T10:02:31.820Z,2.30
2022-11-11T10:05:17.743Z,2.33
2022-11-11T10:08:03.499Z,3.97
2022-11-11T10:10:49.050Z,2.78
2022-11-11T10:13:35.180Z,2.28
2022-11-11T10:16:20.764Z,2.55
2022-11-11T10:19:06.384Z,2.30
2022-11-11T10:22:11.646Z,2.40
2022-11-11T10:27:43.616Z,2.03
2022-11-11T10:30:32.032Z,2.10
2022-11-11T10:33:17.874Z,2.50
2022-11-11T10:36:03.504Z,3.35
2022-11-11T10:38:49.095Z,3.88
2022-11-11T10:41:34.871Z,2.30
2022-11-11T10:44:21.486Z,3.05
2022-11-11T10:47:07.256Z,2.38
2022-11-11T10:49:52.930Z,2.10
2022-11-11T10:52:38.628Z,1.80
2022-11-11T10:55:24.205Z,2.47
2022-11-11T10:58:09.718Z,2.47
2022-11-11T11:00:55.343Z,2.33
2022-11-11T11:03:40.897Z,1.88
2022-11-11T11:06:31.236Z,2.85
2022-11-11T11:09:17.882Z,2.47
2022-11-11T11:12:04.047Z,1.77
2022-11-11T11:14:50.130Z,2.05
2022-11-11T11:17:35.964Z,2.03
2022-11-11T11:20:21.596Z,1.90
2022-11-11T11:23:07.385Z,2.42
2022-11-11T11:25:53.287Z,2.63
2022-11-11T11:28:39.272Z,2.00
2022-11-11T11:31:25.275Z,2.25
2022-11-11T11:34:11.152Z,3.15
2022-11-11T11:36:56.710Z,2.38
2022-11-11T11:39:42.753Z,2.67
2022-11-11T11:42:28.480Z,1.80
2022-11-11T11:45:13.942Z,1.88
2022-11-11T11:48:29.120Z,2.70
2022-11-11T11:51:05.703Z,1.95
2022-11-11T11:53:51.495Z,1.73
2022-11-11T11:56:37.438Z,2.15
2022-11-11T11:59:23.318Z,2.10
2022-11-11T12:02:09.169Z,2.30
2022-11-11T12:04:55.038Z,1.60
2022-11-11T12:07:40.688Z,2.30
2022-11-11T12:10:26.515Z,2.10
2022-11-11T12:13:12.386Z,2.03
2022-11-11T12:15:58.803Z,2.97
2022-11-11T12:18:44.529Z,1.90
2022-11-11T12:21:30.156Z,1.95
2022-11-11T12:24:15.786Z,1.73
2022-11-11T12:27:01.283Z,1.77
2022-11-11T12:29:48.333Z,2.15
2022-11-11T12:32:34.133Z,1.85
2022-11-11T12:35:19.725Z,2.05
2022-11-11T12:38:05.440Z,1.98
2022-11-11T12:40:51.497Z,2.22
2022-11-11T12:43:37.038Z,2.10
2022-11-11T12:46:23.271Z,1.65
2022-11-11T12:49:09.278Z,1.92
2022-11-11T12:51:54.881Z,1.92
2022-11-11T12:54:40.378Z,3.03
2022-11-11T12:57:26.724Z,2.17
2022-11-11T13:00:12.946Z,2.17
2022-11-11T13:02:59.353Z,1.90
2022-11-11T13:05:45.234Z,1.55
2022-11-11T13:08:31.582Z,2.08
2022-11-11T13:11:17.256Z,2.53
2022-11-11T13:14:02.787Z,1.67
2022-11-11T13:16:48.261Z,1.60
2022-11-11T13:19:34.030Z,2.83
2022-11-11T13:22:19.624Z,1.85
2022-11-11T13:25:07.722Z,1.92
2022-11-11T13:27:55.416Z,1.65
2022-11-11T13:30:40.998Z,1.75
2022-11-11T13:33:27.442Z,2.20
2022-11-11T13:36:13.633Z,2.20
2022-11-11T13:38:59.147Z,1.52
2022-11-11T13:41:44.697Z,1.73
2022-11-11T13:44:30.328Z,1.77
2022-11-11T13:47:16.329Z,1.85
2022-11-11T13:50:02.297Z,1.90
2022-11-11T13:52:48.052Z,1.30
2022-11-11T13:55:34.147Z,1.90
2022-11-11T13:58:20.393Z,1.88
2022-11-11T14:01:05.991Z,1.33
2022-11-11T14:03:52.353Z,2.05
2022-11-11T14:06:38.402Z,1.35
2022-11-11T14:09:24.591Z,1.77
2022-11-11T14:12:10.427Z,1.60
2022-11-11T14:14:56.726Z,1.80
2022-11-11T14:17:42.286Z,2.25
2022-11-11T14:20:27.955Z,1.55
2022-11-11T14:23:13.673Z,1.70
2022-11-11T14:25:59.411Z,1.67
2022-11-11T14:28:48.168Z,1.77
2022-11-11T14:31:34.434Z,1.95
2022-11-11T14:34:20.406Z,1.80
2022-11-11T14:37:06.209Z,1.55
2022-11-11T14:39:51.706Z,1.63
2022-11-11T14:42:37.644Z,1.73
2022-11-11T14:45:23.544Z,2.22
2022-11-11T14:48:09.247Z,1.65
2022-11-11T14:50:54.913Z,1.67
2022-11-11T14:53:40.659Z,1.77
2022-11-11T14:56:26.445Z,1.90
2022-11-11T14:59:14.323Z,2.53
2022-11-11T15:02:00.208Z,1.50
2022-11-11T15:04:45.864Z,2.13
2022-11-11T15:07:32.137Z,2.10
2022-11-11T15:10:17.842Z,1.98
2022-11-11T15:13:03.648Z,1.42
2022-11-11T15:15:49.385Z,1.73
2022-11-11T15:18:34.986Z,1.98
2022-11-11T15:21:21.023Z,1.63
2022-11-11T15:24:06.483Z,1.48
2022-11-11T15:26:52.129Z,1.65
2022-11-11T15:29:37.766Z,2.08
2022-11-11T15:32:23.350Z,3.17
2022-11-11T15:35:08.968Z,1.58
2022-11-11T15:37:54.472Z,1.30
2022-11-11T15:40:41.013Z,1.70
2022-11-11T15:43:27.148Z,1.52
2022-11-11T15:46:13.365Z,1.60
2022-11-11T15:48:58.984Z,2.53
2022-11-11T15:51:44.457Z,2.00
2022-11-11T15:54:30.226Z,2.47
2022-11-11T15:57:16.798Z,2.20
2022-11-11T16:00:02.327Z,1.85
2022-11-11T16:02:47.919Z,2.03
2022-11-11T16:05:34.131Z,2.22
2022-11-11T16:08:23.219Z,1.98
2022-11-11T16:11:09.386Z,2.03
2022-11-11T16:13:59.052Z,1.83
2022-11-11T16:16:46.081Z,1.60
2022-11-11T16:19:32.248Z,1.98
2022-11-11T16:22:17.966Z,1.50
2022-11-11T16:25:05.216Z,2.00
2022-11-11T16:27:50.962Z,2.45
2022-11-11T16:30:36.876Z,1.50
2022-11-11T16:33:22.954Z,1.55
2022-11-11T16:36:09.232Z,2.22
2022-11-11T16:38:54.987Z,1.48
2022-11-11T16:41:42.168Z,2.17
2022-11-11T16:44:27.747Z,2.20
2022-11-11T16:47:13.130Z,2.05
2022-11-11T16:49:59.112Z,3.08
2022-11-11T16:52:45.263Z,1.70
2022-11-11T16:55:31.792Z,2.00
2022-11-11T16:58:17.405Z,2.83
2022-11-11T17:01:03.280Z,2.20
2022-11-11T17:03:49.282Z,2.50
2022-11-11T17:06:35.121Z,1.80
2022-11-11T17:09:21.189Z,2.60
2022-11-11T17:12:07.295Z,2.20
2022-11-11T17:14:52.999Z,2.22
2022-11-11T17:17:38.804Z,2.30
2022-11-11T17:20:24.804Z,2.55
2022-11-11T17:23:10.581Z,2.47
2022-11-11T17:25:56.663Z,1.63
2022-11-11T17:28:42.297Z,1.98
2022-11-11T17:31:27.758Z,1.58
2022-11-11T17:34:13.520Z,3.15
2022-11-11T17:36:58.920Z,2.25
2022-11-11T17:39:45.239Z,3.13
2022-11-11T17:42:31.378Z,2.85
2022-11-11T17:45:17.290Z,7.00
2022-11-11T17:48:03.024Z,2.70
2022-11-11T17:50:48.685Z,2.03
2022-11-11T17:53:34.832Z,2.08
2022-11-11T17:56:20.480Z,2.13
2022-11-11T17:59:07.979Z,2.22
2022-11-11T18:01:53.831Z,2.53
2022-11-11T18:04:39.582Z,3.22
2022-11-11T18:07:25.280Z,3.60
2022-11-11T18:10:11.267Z,2.00
2022-11-11T18:12:57.307Z,3.47
2022-11-11T18:15:43.180Z,2.70
2022-11-11T18:18:28.857Z,3.03
2022-11-11T18:21:14.721Z,2.28
2022-11-11T18:24:00.847Z,3.00
2022-11-11T18:26:46.989Z,2.30
2022-11-11T18:29:34.515Z,2.53
2022-11-11T18:32:20.186Z,2.30
2022-11-11T18:35:06.405Z,2.42
2022-11-11T18:37:52.293Z,2.10
2022-11-11T18:40:37.866Z,2.13
2022-11-11T18:43:23.852Z,2.30
2022-11-11T18:46:09.676Z,2.10
2022-11-11T18:48:55.416Z,2.50
2022-11-11T18:51:41.129Z,2.97
2022-11-11T18:54:30.345Z,2.80
2022-11-11T18:57:16.916Z,2.50
2022-11-11T19:00:02.886Z,2.70
2022-11-11T19:02:48.367Z,2.08
2022-11-11T19:05:34.043Z,2.10
2022-11-11T19:08:19.535Z,2.45
2022-11-11T19:11:05.103Z,2.40
2022-11-11T19:13:50.680Z,2.83
2022-11-11T19:16:36.431Z,2.97
2022-11-11T19:19:21.943Z,2.10
2022-11-11T19:22:07.491Z,3.13
2022-11-11T19:24:53.089Z,2.53
2022-11-11T19:27:38.739Z,2.65
2022-11-11T19:30:24.861Z,2.38
2022-11-11T19:33:10.547Z,2.55
2022-11-11T19:35:56.686Z,2.50
2022-11-11T19:38:42.543Z,3.20
2022-11-11T19:41:28.521Z,4.50
2022-11-11T19:44:14.071Z,3.80
2022-11-11T19:46:59.694Z,4.03
2022-11-11T19:49:45.255Z,4.20
2022-11-11T19:52:30.898Z,3.80
2022-11-11T19:55:16.571Z,4.30
2022-11-11T19:58:03.161Z,4.75
2022-11-11T20:00:49.026Z,4.05
2022-11-11T20:03:35.845Z,4.75
2022-11-11T20:06:21.700Z,4.22
2022-11-11T20:09:07.532Z,3.97
2022-11-11T20:11:53.200Z,4.53
2022-11-11T20:14:39.292Z,4.25
2022-11-11T20:17:24.862Z,4.00
2022-11-11T20:20:10.575Z,4.20
2022-11-11T20:22:56.175Z,5.63
2022-11-11T20:25:42.239Z,4.22
2022-11-11T20:28:27.936Z,4.05
2022-11-11T20:31:13.785Z,4.82
2022-11-11T20:33:59.677Z,4.22
2022-11-11T20:36:45.424Z,5.35
2022-11-11T20:39:31.058Z,6.97
2022-11-11T20:42:16.974Z,8.90
2022-11-11T20:45:02.747Z,8.90
2022-11-11T20:47:48.512Z,8.98
2022-11-11T20:50:35.126Z,8.00
2022-11-11T20:53:20.810Z,7.18
2022-11-11T20:56:06.316Z,7.53
2022-11-11T20:58:52.063Z,6.80
2022-11-11T21:01:37.850Z,6.55
2022-11-11T21:04:24.019Z,6.72
2022-11-11T21:07:09.710Z,6.57
2022-11-11T21:09:55.636Z,6.72
2022-11-11T21:12:41.197Z,7.40
2022-11-11T21:15:26.824Z,7.20
2022-11-11T21:18:13.112Z,6.63
2022-11-11T21:20:59.137Z,6.53
2022-11-11T21:23:44.668Z,5.55
2022-11-11T21:26:30.643Z,5.45
2022-11-11T21:29:16.353Z,6.70
2022-11-11T21:32:01.862Z,8.23
2022-11-11T21:34:47.410Z,12.00
2022-11-11T21:37:33.032Z,11.73
2022-11-11T21:40:18.795Z,11.70
2022-11-11T21:43:05.117Z,15.23
2022-11-11T21:45:50.889Z,12.48
2022-11-11T21:48:36.852Z,12.98
2022-11-11T21:51:25.684Z,11.60
2022-11-11T21:54:11.116Z,11.50
2022-11-11T21:56:57.389Z,12.45
2022-11-11T21:59:43.589Z,11.27
2022-11-11T22:02:29.825Z,11.45
2022-11-11T22:05:15.696Z,10.85
2022-11-11T22:08:01.976Z,10.10
2022-11-11T22:10:47.941Z,10.10
2022-11-11T22:13:34.015Z,10.98
2022-11-11T22:16:19.522Z,8.25
2022-11-11T22:19:05.619Z,9.27
2022-11-11T22:21:51.255Z,8.55
2022-11-11T22:24:36.840Z,8.82
2022-11-11T22:27:22.842Z,8.38
2022-11-11T22:30:08.410Z,9.45
2022-11-11T22:32:54.577Z,9.13
2022-11-11T22:35:40.140Z,8.20
2022-11-11T22:38:25.935Z,7.93
2022-11-11T22:41:11.933Z,8.32
2022-11-11T22:44:00.091Z,7.05
2022-11-11T22:46:46.527Z,7.75
2022-11-11T22:49:32.347Z,7.40
2022-11-11T22:52:18.383Z,8.30
2022-11-11T22:55:04.139Z,7.50
2022-11-11T22:57:50.040Z,7.75
2022-11-11T23:00:36.018Z,8.00
2022-11-11T23:03:21.658Z,7.63
2022-11-11T23:06:07.304Z,8.43
2022-11-11T23:08:53.320Z,7.60
2022-11-11T23:11:40.839Z,7.97
2022-11-11T23:14:26.424Z,7.43
2022-11-11T23:17:12.079Z,7.55
2022-11-11T23:19:57.719Z,10.25
2022-11-11T23:22:43.880Z,8.80
2022-11-11T23:25:29.469Z,9.30
2022-11-11T23:28:15.062Z,9.75
2022-11-11T23:31:00.610Z,9.80
2022-11-11T23:33:46.334Z,9.32
2022-11-11T23:36:31.769Z,9.32
2022-11-11T23:39:17.408Z,9.57
2022-11-11T23:42:02.930Z,9.63
2022-11-11T23:44:49.001Z,8.98
2022-11-11T23:47:34.941Z,8.80
2022-11-11T23:50:20.877Z,8.88
2022-11-11T23:53:06.646Z,9.15
2022-11-11T23:55:52.227Z,9.48
2022-11-11T23:58:37.747Z,9.15
